sensor_id;sensor_type;location;lat;lon;timestamp;pressure;altitude;pressure_sealevel;temperature;humidity
3524;BME280;1776;53.330;11.498;2023-07-13T00:00:35;26615.38;;;-147.39;53.02
3524;BME280;1776;53.330;11.498;2023-07-13T00:03:01;26617.41;;;-147.39;53.24
3524;BME280;1776;53.330;11.498;2023-07-13T00:05:26;26676.41;;;-147.39;53.52
3524;BME280;1776;53.330;11.498;2023-07-13T00:07:52;26574.69;;;-147.39;53.25
3524;BME280;1776;53.330;11.498;2023-07-13T00:10:19;26566.53;;;-147.39;53.17
3524;BME280;1776;53.330;11.498;2023-07-13T00:12:45;26578.75;;;-147.39;53.58
3524;BME280;1776;53.330;11.498;2023-07-13T00:15:20;26556.38;;;-147.39;53.99
3524;BME280;1776;53.330;11.498;2023-07-13T00:17:52;26550.25;;;-147.39;54.04
3524;BME280;1776;53.330;11.498;2023-07-13T00:20:19;26531.97;;;-147.39;53.95
3524;BME280;1776;53.330;11.498;2023-07-13T00:22:46;26491.25;;;-147.39;54.15
3524;BME280;1776;53.330;11.498;2023-07-13T00:25:12;26454.66;;;-147.39;54.96
3524;BME280;1776;53.330;11.498;2023-07-13T00:27:38;26379.38;;;-147.39;55.38
3524;BME280;1776;53.330;11.498;2023-07-13T00:30:03;26383.44;;;-147.39;55.56
3524;BME280;1776;53.330;11.498;2023-07-13T00:32:29;26357.00;;;-147.39;56.05
3524;BME280;1776;53.330;11.498;2023-07-13T00:34:55;26479.06;;;-147.39;56.31
3524;BME280;1776;53.330;11.498;2023-07-13T00:37:20;26220.69;;;-147.39;57.18
3524;BME280;1776;53.330;11.498;2023-07-13T00:39:45;26259.34;;;-147.39;56.89
3524;BME280;1776;53.330;11.498;2023-07-13T00:42:11;26275.63;;;-147.39;56.61
3524;BME280;1776;53.330;11.498;2023-07-13T00:44:36;26322.41;;;-147.39;56.24
3524;BME280;1776;53.330;11.498;2023-07-13T00:47:02;26255.28;;;-147.39;56.47
3524;BME280;1776;53.330;11.498;2023-07-13T00:49:29;26304.09;;;-147.39;56.27
3524;BME280;1776;53.330;11.498;2023-07-13T00:52:04;26271.53;;;-147.39;56.38
3524;BME280;1776;53.330;11.498;2023-07-13T00:54:41;25555.50;;;-147.39;58.23
3524;BME280;1776;53.330;11.498;2023-07-13T00:57:12;25976.56;;;-147.39;59.70
3524;BME280;1776;53.330;11.498;2023-07-13T00:59:42;25905.38;;;-147.39;60.60
3524;BME280;1776;53.330;11.498;2023-07-13T01:02:10;25992.84;;;-147.39;60.06
3524;BME280;1776;53.330;11.498;2023-07-13T01:04:35;25931.81;;;-147.39;59.98
3524;BME280;1776;53.330;11.498;2023-07-13T01:07:01;25923.69;;;-147.39;60.12
3524;BME280;1776;53.330;11.498;2023-07-13T01:09:26;25958.25;;;-147.39;59.54
3524;BME280;1776;53.330;11.498;2023-07-13T01:11:52;25944.03;;;-147.39;59.81
3524;BME280;1776;53.330;11.498;2023-07-13T01:14:17;25937.91;;;-147.39;59.76
3524;BME280;1776;53.330;11.498;2023-07-13T01:16:44;25946.06;;;-147.39;59.74
3524;BME280;1776;53.330;11.498;2023-07-13T01:21:51;25941.97;;;-147.39;59.38
3524;BME280;1776;53.330;11.498;2023-07-13T01:24:17;25982.66;;;-147.39;59.23
3524;BME280;1776;53.330;11.498;2023-07-13T01:26:42;26019.28;;;-147.39;58.76
3524;BME280;1776;53.330;11.498;2023-07-13T01:29:08;26017.25;;;-147.39;58.71
3524;BME280;1776;53.330;11.498;2023-07-13T01:31:33;26000.97;;;-147.39;58.36
3524;BME280;1776;53.330;11.498;2023-07-13T01:33:58;26037.59;;;-147.39;58.64
3524;BME280;1776;53.330;11.498;2023-07-13T01:36:24;25980.63;;;-147.39;58.97
3524;BME280;1776;53.330;11.498;2023-07-13T01:38:49;26019.28;;;-147.39;58.65
3524;BME280;1776;53.330;11.498;2023-07-13T01:41:15;26009.13;;;-147.39;58.82
3524;BME280;1776;53.330;11.498;2023-07-13T01:43:40;26131.16;;;-147.39;58.71
3524;BME280;1776;53.330;11.498;2023-07-13T01:46:06;26021.31;;;-147.39;59.06
3524;BME280;1776;53.330;11.498;2023-07-13T01:48:31;25998.94;;;-147.39;59.34
3524;BME280;1776;53.330;11.498;2023-07-13T01:50:56;25984.69;;;-147.39;59.41
3524;BME280;1776;53.330;11.498;2023-07-13T01:53:21;25992.84;;;-147.39;59.53
3524;BME280;1776;53.330;11.498;2023-07-13T01:55:47;26007.06;;;-147.39;59.60
3524;BME280;1776;53.330;11.498;2023-07-13T01:58:12;26031.50;;;-147.39;60.19
3524;BME280;1776;53.330;11.498;2023-07-13T02:00:37;25976.56;;;-147.39;60.09
3524;BME280;1776;53.330;11.498;2023-07-13T02:03:03;25907.41;;;-147.39;61.35
3524;BME280;1776;53.330;11.498;2023-07-13T02:05:28;25903.34;;;-147.39;61.28
3524;BME280;1776;53.330;11.498;2023-07-13T02:07:53;25937.91;;;-147.39;60.93
3524;BME280;1776;53.330;11.498;2023-07-13T02:10:18;25931.81;;;-147.39;60.83
3524;BME280;1776;53.330;11.498;2023-07-13T02:12:44;25885.03;;;-147.39;61.54
3524;BME280;1776;53.330;11.498;2023-07-13T02:15:09;25575.84;;;-147.39;61.25
3524;BME280;1776;53.330;11.498;2023-07-13T02:17:35;25866.72;;;-147.39;61.64
3524;BME280;1776;53.330;11.498;2023-07-13T02:20:02;25476.16;;;-147.39;61.35
3524;BME280;1776;53.330;11.498;2023-07-13T02:22:28;25903.34;;;-147.39;61.04
3524;BME280;1776;53.330;11.498;2023-07-13T02:24:53;25905.38;;;-147.39;60.94
3524;BME280;1776;53.330;11.498;2023-07-13T02:27:19;25941.97;;;-147.39;60.63
3524;BME280;1776;53.330;11.498;2023-07-13T02:29:44;25876.88;;;-147.39;60.63
3524;BME280;1776;53.330;11.498;2023-07-13T02:32:10;25964.34;;;-147.39;60.65
3524;BME280;1776;53.330;11.498;2023-07-13T02:34:35;25911.47;;;-147.39;60.65
3524;BME280;1776;53.330;11.498;2023-07-13T02:37:00;25921.63;;;-147.39;60.67
3524;BME280;1776;53.330;11.498;2023-07-13T02:39:26;25907.41;;;-147.39;60.61
3524;BME280;1776;53.330;11.498;2023-07-13T02:41:51;25935.88;;;-147.39;60.65
3524;BME280;1776;53.330;11.498;2023-07-13T02:44:16;25911.47;;;-147.39;61.24
3524;BME280;1776;53.330;11.498;2023-07-13T02:46:41;25889.09;;;-147.39;61.58
3524;BME280;1776;53.330;11.498;2023-07-13T02:49:07;25907.41;;;-147.39;61.61
3524;BME280;1776;53.330;11.498;2023-07-13T02:51:33;25793.50;;;-147.39;62.60
3524;BME280;1776;53.330;11.498;2023-07-13T02:54:02;25795.53;;;-147.39;63.54
3524;BME280;1776;53.330;11.498;2023-07-13T02:56:29;25762.97;;;-147.39;63.48
3524;BME280;1776;53.330;11.498;2023-07-13T02:58:55;25789.41;;;-147.39;63.32
3524;BME280;1776;53.330;11.498;2023-07-13T03:01:22;25726.38;;;-147.39;63.96
3524;BME280;1776;53.330;11.498;2023-07-13T03:03:48;25703.97;;;-147.39;63.73
3524;BME280;1776;53.330;11.498;2023-07-13T03:06:14;25675.50;;;-147.39;64.31
3524;BME280;1776;53.330;11.498;2023-07-13T03:08:40;25642.97;;;-147.39;65.28
3524;BME280;1776;53.330;11.498;2023-07-13T03:11:09;25586.00;;;-147.39;65.26
3524;BME280;1776;53.330;11.498;2023-07-13T03:13:36;25608.38;;;-147.39;66.04
3524;BME280;1776;53.330;11.498;2023-07-13T03:16:01;25565.66;;;-147.39;66.33
3524;BME280;1776;53.330;11.498;2023-07-13T03:18:27;25419.22;;;-147.39;66.56
3524;BME280;1776;53.330;11.498;2023-07-13T03:20:53;25459.91;;;-147.39;66.33
3524;BME280;1776;53.330;11.498;2023-07-13T03:23:20;25466.00;;;-147.39;65.88
3524;BME280;1776;53.330;11.498;2023-07-13T03:25:46;25411.09;;;-147.39;66.25
3524;BME280;1776;53.330;11.498;2023-07-13T03:28:12;25577.88;;;-147.39;65.94
3524;BME280;1776;53.330;11.498;2023-07-13T03:30:38;25392.78;;;-147.39;66.56
3524;BME280;1776;53.330;11.498;2023-07-13T03:33:04;25394.81;;;-147.39;66.81
3524;BME280;1776;53.330;11.498;2023-07-13T03:35:29;25287.00;;;-147.39;67.55
3524;BME280;1776;53.330;11.498;2023-07-13T03:37:55;25187.34;;;-147.39;68.36
3524;BME280;1776;53.330;11.498;2023-07-13T03:40:20;25126.34;;;-147.39;68.66
3524;BME280;1776;53.330;11.498;2023-07-13T03:42:46;25057.19;;;-147.39;68.97
3524;BME280;1776;53.330;11.498;2023-07-13T03:45:11;25045.00;;;-147.39;68.82
3524;BME280;1776;53.330;11.498;2023-07-13T03:47:36;24963.63;;;-147.39;69.21
3524;BME280;1776;53.330;11.498;2023-07-13T03:50:02;24922.97;;;-147.39;69.43
3524;BME280;1776;53.330;11.498;2023-07-13T03:52:28;24920.94;;;-147.39;69.67
3524;BME280;1776;53.330;11.498;2023-07-13T03:54:53;24927.03;;;-147.39;69.14
3524;BME280;1776;53.330;11.498;2023-07-13T04:00:40;24807.03;;;-147.39;70.04
3524;BME280;1776;53.330;11.498;2023-07-13T04:03:06;24782.66;;;-147.39;70.22
3524;BME280;1776;53.330;11.498;2023-07-13T04:05:31;24727.75;;;-147.39;70.31
3524;BME280;1776;53.330;11.498;2023-07-13T04:07:56;24744.00;;;-147.39;69.74
3524;BME280;1776;53.330;11.498;2023-07-13T04:10:22;24721.63;;;-147.39;70.02
3524;BME280;1776;53.330;11.498;2023-07-13T04:12:47;24717.56;;;-147.39;70.49
3524;BME280;1776;53.330;11.498;2023-07-13T04:15:13;24638.25;;;-147.39;71.11
3524;BME280;1776;53.330;11.498;2023-07-13T04:17:38;24748.06;;;-147.39;70.62
3524;BME280;1776;53.330;11.498;2023-07-13T04:20:03;24577.25;;;-147.39;72.02
3524;BME280;1776;53.330;11.498;2023-07-13T04:22:29;24481.69;;;-147.39;73.01
3524;BME280;1776;53.330;11.498;2023-07-13T04:24:54;24276.31;;;-147.39;73.63
3524;BME280;1776;53.330;11.498;2023-07-13T04:27:20;24276.31;;;-147.39;73.05
3524;BME280;1776;53.330;11.498;2023-07-13T04:29:45;24357.63;;;-147.39;72.24
3524;BME280;1776;53.330;11.498;2023-07-13T04:32:10;24367.81;;;-147.39;71.42
3524;BME280;1776;53.330;11.498;2023-07-13T04:34:35;24453.22;;;-147.39;70.50
3524;BME280;1776;53.330;11.498;2023-07-13T04:37:01;24581.31;;;-147.39;69.58
3524;BME280;1776;53.330;11.498;2023-07-13T04:39:26;24617.94;;;-147.39;68.76
3524;BME280;1776;53.330;11.498;2023-07-13T04:41:51;24790.78;;;-147.39;68.45
3524;BME280;1776;53.330;11.498;2023-07-13T04:44:16;24685.03;;;-147.39;68.05
3524;BME280;1776;53.330;11.498;2023-07-13T04:46:42;24764.34;;;-147.39;66.99
3524;BME280;1776;53.330;11.498;2023-07-13T04:49:07;24748.06;;;-147.39;66.92
3524;BME280;1776;53.330;11.498;2023-07-13T04:51:32;24746.03;;;-147.39;67.36
3524;BME280;1776;53.330;11.498;2023-07-13T04:53:57;24721.63;;;-147.39;67.44
3524;BME280;1776;53.330;11.498;2023-07-13T04:56:23;24707.41;;;-147.39;68.27
3524;BME280;1776;53.330;11.498;2023-07-13T04:58:48;24750.09;;;-147.39;67.71
3524;BME280;1776;53.330;11.498;2023-07-13T05:01:13;24766.38;;;-147.39;67.69
3524;BME280;1776;53.330;11.498;2023-07-13T05:03:39;24819.25;;;-147.39;67.16
3524;BME280;1776;53.330;11.498;2023-07-13T05:06:06;24835.53;;;-147.39;66.61
3524;BME280;1776;53.330;11.498;2023-07-13T05:08:32;24914.84;;;-147.39;65.34
3524;BME280;1776;53.330;11.498;2023-07-13T05:11:02;25008.38;;;-147.39;65.75
3524;BME280;1776;53.330;11.498;2023-07-13T05:13:28;24916.88;;;-147.39;65.20
3524;BME280;1776;53.330;11.498;2023-07-13T05:15:58;24981.94;;;-147.39;64.73
3524;BME280;1776;53.330;11.498;2023-07-13T05:18:24;24947.38;;;-147.39;64.98
3524;BME280;1776;53.330;11.498;2023-07-13T05:21:05;25006.34;;;-147.39;64.68
3524;BME280;1776;53.330;11.498;2023-07-13T05:23:31;25061.25;;;-147.39;64.37
3524;BME280;1776;53.330;11.498;2023-07-13T05:25:57;24990.09;;;-147.39;64.33
3524;BME280;1776;53.330;11.498;2023-07-13T05:28:23;25057.19;;;-147.39;64.02
3524;BME280;1776;53.330;11.498;2023-07-13T05:30:49;25059.22;;;-147.39;64.28
3524;BME280;1776;53.330;11.498;2023-07-13T05:33:14;25022.63;;;-147.39;64.54
3524;BME280;1776;53.330;11.498;2023-07-13T05:35:40;25053.13;;;-147.39;64.31
3524;BME280;1776;53.330;11.498;2023-07-13T05:38:05;25040.94;;;-147.39;64.44
3524;BME280;1776;53.330;11.498;2023-07-13T05:40:31;25000.25;;;-147.39;64.41
3524;BME280;1776;53.330;11.498;2023-07-13T05:42:56;25049.06;;;-147.39;64.39
3524;BME280;1776;53.330;11.498;2023-07-13T05:45:21;25134.47;;;-147.39;64.06
3524;BME280;1776;53.330;11.498;2023-07-13T05:47:47;25126.34;;;-147.39;63.83
3524;BME280;1776;53.330;11.498;2023-07-13T05:50:12;25120.25;;;-147.39;63.88
3524;BME280;1776;53.330;11.498;2023-07-13T05:52:37;25146.69;;;-147.39;63.71
3524;BME280;1776;53.330;11.498;2023-07-13T05:55:03;25248.38;;;-147.39;62.43
3524;BME280;1776;53.330;11.498;2023-07-13T05:57:30;25215.84;;;-147.39;61.87
3524;BME280;1776;53.330;11.498;2023-07-13T05:59:55;25278.88;;;-147.39;61.58
3524;BME280;1776;53.330;11.498;2023-07-13T06:02:20;25331.75;;;-147.39;61.06
3524;BME280;1776;53.330;11.498;2023-07-13T06:04:45;25307.34;;;-147.39;60.99
3524;BME280;1776;53.330;11.498;2023-07-13T06:07:11;25354.13;;;-147.39;60.21
3524;BME280;1776;53.330;11.498;2023-07-13T06:09:36;25364.31;;;-147.39;59.84
3524;BME280;1776;53.330;11.498;2023-07-13T06:12:01;25376.50;;;-147.39;59.78
3524;BME280;1776;53.330;11.498;2023-07-13T06:14:27;25421.25;;;-147.39;59.17
3524;BME280;1776;53.330;11.498;2023-07-13T06:16:52;25522.97;;;-147.39;59.10
3524;BME280;1776;53.330;11.498;2023-07-13T06:19:17;25463.97;;;-147.39;58.36
3524;BME280;1776;53.330;11.498;2023-07-13T06:21:43;25522.97;;;-147.39;58.80
3524;BME280;1776;53.330;11.498;2023-07-13T06:24:08;25742.63;;;-147.39;57.73
3524;BME280;1776;53.330;11.498;2023-07-13T06:26:33;25565.66;;;-147.39;57.71
3524;BME280;1776;53.330;11.498;2023-07-13T06:28:58;25539.22;;;-147.39;58.16
3524;BME280;1776;53.330;11.498;2023-07-13T06:31:24;25628.72;;;-147.39;57.59
3524;BME280;1776;53.330;11.498;2023-07-13T06:33:49;25708.06;;;-147.39;57.48
3524;BME280;1776;53.330;11.498;2023-07-13T06:36:15;25606.34;;;-147.39;56.86
3524;BME280;1776;53.330;11.498;2023-07-13T06:38:40;25435.50;;;-147.39;56.86
3524;BME280;1776;53.330;11.498;2023-07-13T06:41:07;25600.25;;;-147.39;57.34
3524;BME280;1776;53.330;11.498;2023-07-13T06:43:33;25632.78;;;-147.39;57.57
3524;BME280;1776;53.330;11.498;2023-07-13T06:45:58;25606.34;;;-147.39;57.40
3524;BME280;1776;53.330;11.498;2023-07-13T06:48:24;25659.25;;;-147.39;57.44
3524;BME280;1776;53.330;11.498;2023-07-13T06:50:50;25661.28;;;-147.39;56.99
3524;BME280;1776;53.330;11.498;2023-07-13T06:53:17;25683.66;;;-147.39;57.10
3524;BME280;1776;53.330;11.498;2023-07-13T06:55:43;25724.31;;;-147.39;56.86
3524;BME280;1776;53.330;11.498;2023-07-13T06:58:09;25760.94;;;-147.39;56.50
3524;BME280;1776;53.330;11.498;2023-07-13T07:00:34;25736.53;;;-147.39;56.54
3524;BME280;1776;53.330;11.498;2023-07-13T07:03:00;25748.75;;;-147.39;56.57
3524;BME280;1776;53.330;11.498;2023-07-13T07:05:25;25740.59;;;-147.39;56.55
3524;BME280;1776;53.330;11.498;2023-07-13T07:07:51;25673.47;;;-147.39;56.25
3524;BME280;1776;53.330;11.498;2023-07-13T07:10:17;25844.34;;;-147.39;56.28
3524;BME280;1776;53.330;11.498;2023-07-13T07:12:42;25883.00;;;-147.39;56.02
3524;BME280;1776;53.330;11.498;2023-07-13T07:15:08;25870.78;;;-147.39;55.80
3524;BME280;1776;53.330;11.498;2023-07-13T07:17:34;25807.72;;;-147.39;55.90
3524;BME280;1776;53.330;11.498;2023-07-13T07:19:59;25872.81;;;-147.39;55.60
3524;BME280;1776;53.330;11.498;2023-07-13T07:22:24;25815.88;;;-147.39;56.44
3524;BME280;1776;53.330;11.498;2023-07-13T07:24:52;25862.66;;;-147.39;55.87
3524;BME280;1776;53.330;11.498;2023-07-13T07:27:17;25895.19;;;-147.39;54.36
3524;BME280;1776;53.330;11.498;2023-07-13T07:29:43;25944.03;;;-147.39;54.11
3524;BME280;1776;53.330;11.498;2023-07-13T07:32:08;25960.28;;;-147.39;53.08
3524;BME280;1776;53.330;11.498;2023-07-13T07:34:33;25952.16;;;-147.39;52.80
3524;BME280;1776;53.330;11.498;2023-07-13T07:37:00;25980.63;;;-147.39;53.24
3524;BME280;1776;53.330;11.498;2023-07-13T07:39:26;26053.88;;;-147.39;52.69
3524;BME280;1776;53.330;11.498;2023-07-13T07:41:51;26051.84;;;-147.39;52.14
3524;BME280;1776;53.330;11.498;2023-07-13T07:44:16;26080.31;;;-147.39;50.53
3524;BME280;1776;53.330;11.498;2023-07-13T07:46:41;25933.84;;;-147.39;51.04
3524;BME280;1776;53.330;11.498;2023-07-13T07:49:07;26129.13;;;-147.39;51.40
3524;BME280;1776;53.330;11.498;2023-07-13T07:51:32;26192.19;;;-147.39;51.04
3524;BME280;1776;53.330;11.498;2023-07-13T07:53:57;26220.69;;;-147.39;49.96
3524;BME280;1776;53.330;11.498;2023-07-13T07:56:22;26251.19;;;-147.39;49.40
3524;BME280;1776;53.330;11.498;2023-07-13T07:58:48;26241.03;;;-147.39;48.89
3524;BME280;1776;53.330;11.498;2023-07-13T08:01:13;26273.56;;;-147.39;48.62
3524;BME280;1776;53.330;11.498;2023-07-13T08:03:38;26326.47;;;-147.39;48.62
3524;BME280;1776;53.330;11.498;2023-07-13T08:06:04;26446.50;;;-147.39;47.58
3524;BME280;1776;53.330;11.498;2023-07-13T08:08:29;26430.22;;;-147.39;48.08
3524;BME280;1776;53.330;11.498;2023-07-13T08:10:54;26450.56;;;-147.39;46.66
3524;BME280;1776;53.330;11.498;2023-07-13T08:13:20;26477.03;;;-147.39;46.14
3524;BME280;1776;53.330;11.498;2023-07-13T08:15:46;26550.25;;;-147.39;45.69
3524;BME280;1776;53.330;11.498;2023-07-13T08:18:11;26550.25;;;-147.39;45.40
3524;BME280;1776;53.330;11.498;2023-07-13T08:20:40;26560.44;;;-147.39;45.19
3524;BME280;1776;53.330;11.498;2023-07-13T08:23:06;26546.19;;;-147.39;45.90
3524;BME280;1776;53.330;11.498;2023-07-13T08:25:31;26582.81;;;-147.39;45.41
3524;BME280;1776;53.330;11.498;2023-07-13T08:27:57;26627.56;;;-147.39;45.01
3524;BME280;1776;53.330;11.498;2023-07-13T08:30:22;26680.47;;;-147.39;45.21
3524;BME280;1776;53.330;11.498;2023-07-13T08:32:48;26613.34;;;-147.39;45.60
3524;BME280;1776;53.330;11.498;2023-07-13T08:35:13;26615.38;;;-147.39;45.59
3524;BME280;1776;53.330;11.498;2023-07-13T08:37:39;26713.03;;;-147.39;45.37
3524;BME280;1776;53.330;11.498;2023-07-13T08:40:05;26702.84;;;-147.39;44.10
3524;BME280;1776;53.330;11.498;2023-07-13T08:42:37;26763.91;;;-147.39;44.68
3524;BME280;1776;53.330;11.498;2023-07-13T08:45:59;26721.16;;;-147.39;44.58
3524;BME280;1776;53.330;11.498;2023-07-13T08:48:27;26678.44;;;-147.39;45.07
3524;BME280;1776;53.330;11.498;2023-07-13T08:51:12;26662.16;;;-147.39;45.52
3524;BME280;1776;53.330;11.498;2023-07-13T08:53:47;26641.81;;;-147.39;45.31
3524;BME280;1776;53.330;11.498;2023-07-13T08:56:18;26607.22;;;-147.39;45.32
3524;BME280;1776;53.330;11.498;2023-07-13T08:58:48;26643.84;;;-147.39;45.22
3524;BME280;1776;53.330;11.498;2023-07-13T09:01:24;26635.72;;;-147.39;44.88
3524;BME280;1776;53.330;11.498;2023-07-13T09:04:02;26776.09;;;-147.39;45.07
3524;BME280;1776;53.330;11.498;2023-07-13T09:06:35;26682.50;;;-147.39;45.05
3524;BME280;1776;53.330;11.498;2023-07-13T09:09:14;26694.72;;;-147.39;45.45
3524;BME280;1776;53.330;11.498;2023-07-13T09:12:01;26717.09;;;-147.39;44.67
3524;BME280;1776;53.330;11.498;2023-07-13T09:14:38;26767.97;;;-147.39;44.28
3524;BME280;1776;53.330;11.498;2023-07-13T09:17:08;26774.06;;;-147.39;44.06
3524;BME280;1776;53.330;11.498;2023-07-13T09:19:35;26826.97;;;-147.39;44.24
3524;BME280;1776;53.330;11.498;2023-07-13T09:22:03;26800.53;;;-147.39;44.29
3524;BME280;1776;53.330;11.498;2023-07-13T09:24:39;26861.56;;;-147.39;44.03
3524;BME280;1776;53.330;11.498;2023-07-13T09:27:14;26908.38;;;-147.39;42.91
3524;BME280;1776;53.330;11.498;2023-07-13T09:29:45;26885.97;;;-147.39;43.00
3524;BME280;1776;53.330;11.498;2023-07-13T09:32:14;26912.44;;;-147.39;42.65
3524;BME280;1776;53.330;11.498;2023-07-13T09:34:40;26949.06;;;-147.39;42.99
3524;BME280;1776;53.330;11.498;2023-07-13T09:37:05;27012.13;;;-147.39;42.68
3524;BME280;1776;53.330;11.498;2023-07-13T09:39:37;26991.78;;;-147.39;42.75
3524;BME280;1776;53.330;11.498;2023-07-13T09:42:22;27032.47;;;-147.39;41.65
3524;BME280;1776;53.330;11.498;2023-07-13T09:47:32;27132.19;;;-147.39;42.17
3524;BME280;1776;53.330;11.498;2023-07-13T09:50:06;27189.16;;;-147.39;41.79
3524;BME280;1776;53.330;11.498;2023-07-13T09:55:23;27152.53;;;-147.39;42.10
3524;BME280;1776;53.330;11.498;2023-07-13T09:57:49;27146.44;;;-147.39;42.25
3524;BME280;1776;53.330;11.498;2023-07-13T10:00:29;27246.16;;;-147.39;40.70
3524;BME280;1776;53.330;11.498;2023-07-13T10:03:00;27262.41;;;-147.39;40.29
3524;BME280;1776;53.330;11.498;2023-07-13T10:05:25;27307.19;;;-147.39;40.38
3524;BME280;1776;53.330;11.498;2023-07-13T10:07:51;27309.22;;;-147.39;40.72
3524;BME280;1776;53.330;11.498;2023-07-13T10:10:19;27305.16;;;-147.39;40.89
3524;BME280;1776;53.330;11.498;2023-07-13T10:12:46;27201.38;;;-147.39;40.79
3524;BME280;1776;53.330;11.498;2023-07-13T10:15:20;27254.28;;;-147.39;41.32
3524;BME280;1776;53.330;11.498;2023-07-13T10:17:47;27215.63;;;-147.39;41.52
3524;BME280;1776;53.330;11.498;2023-07-13T10:20:13;27286.84;;;-147.39;41.72
3524;BME280;1776;53.330;11.498;2023-07-13T10:22:58;27063.00;;;-147.39;41.89
3524;BME280;1776;53.330;11.498;2023-07-13T10:25:28;27185.09;;;-147.39;41.97
3524;BME280;1776;53.330;11.498;2023-07-13T10:28:02;27144.41;;;-147.39;42.17
3524;BME280;1776;53.330;11.498;2023-07-13T10:30:34;27168.81;;;-147.39;42.19
3524;BME280;1776;53.330;11.498;2023-07-13T10:33:02;27176.97;;;-147.39;42.28
3524;BME280;1776;53.330;11.498;2023-07-13T10:35:29;27144.41;;;-147.39;42.38
3524;BME280;1776;53.330;11.498;2023-07-13T10:38:01;27140.31;;;-147.39;42.52
3524;BME280;1776;53.330;11.498;2023-07-13T10:40:36;27282.78;;;-147.39;43.04
3524;BME280;1776;53.330;11.498;2023-07-13T10:43:06;27093.53;;;-147.39;43.21
3524;BME280;1776;53.330;11.498;2023-07-13T10:45:35;27154.56;;;-147.39;43.12
3524;BME280;1776;53.330;11.498;2023-07-13T10:48:02;27097.59;;;-147.39;42.32
3524;BME280;1776;53.330;11.498;2023-07-13T10:50:29;27093.53;;;-147.39;42.58
3524;BME280;1776;53.330;11.498;2023-07-13T10:53:03;27130.16;;;-147.39;42.37
3524;BME280;1776;53.330;11.498;2023-07-13T11:01:11;27140.31;;;-147.39;42.87
3524;BME280;1776;53.330;11.498;2023-07-13T11:06:09;27205.44;;;-147.39;42.21
3524;BME280;1776;53.330;11.498;2023-07-13T11:08:38;27179.00;;;-147.39;42.48
3524;BME280;1776;53.330;11.498;2023-07-13T11:13:56;27207.47;;;-147.39;42.72
3524;BME280;1776;53.330;11.498;2023-07-13T11:18:50;27250.22;;;-147.39;42.34
3524;BME280;1776;53.330;11.498;2023-07-13T11:21:21;27388.59;;;-147.39;41.77
3524;BME280;1776;53.330;11.498;2023-07-13T11:24:01;27449.63;;;-147.39;41.05
3524;BME280;1776;53.330;11.498;2023-07-13T11:26:41;27512.72;;;-147.39;40.48
3524;BME280;1776;53.330;11.498;2023-07-13T11:29:39;27583.94;;;-147.39;40.17
3524;BME280;1776;53.330;11.498;2023-07-13T11:32:25;27693.84;;;-147.39;39.75
3524;BME280;1776;53.330;11.498;2023-07-13T11:34:55;27518.81;;;-147.39;39.47
3524;BME280;1776;53.330;11.498;2023-07-13T11:37:21;27307.19;;;-147.39;39.46
3524;BME280;1776;53.330;11.498;2023-07-13T11:39:50;27453.72;;;-147.39;40.05
3524;BME280;1776;53.330;11.498;2023-07-13T11:42:18;27510.69;;;-147.39;39.83
3524;BME280;1776;53.330;11.498;2023-07-13T11:44:50;27518.81;;;-147.39;40.47
3524;BME280;1776;53.330;11.498;2023-07-13T11:47:21;27441.50;;;-147.39;41.24
3524;BME280;1776;53.330;11.498;2023-07-13T11:49:52;27368.25;;;-147.39;41.78
3524;BME280;1776;53.330;11.498;2023-07-13T11:52:34;27347.88;;;-147.39;42.75
3524;BME280;1776;53.330;11.498;2023-07-13T11:55:02;27250.22;;;-147.39;44.02
3524;BME280;1776;53.330;11.498;2023-07-13T11:57:32;27256.31;;;-147.39;45.08
3524;BME280;1776;53.330;11.498;2023-07-13T12:00:09;27209.50;;;-147.39;46.29
3524;BME280;1776;53.330;11.498;2023-07-13T12:02:39;27146.44;;;-147.39;48.17
3524;BME280;1776;53.330;11.498;2023-07-13T12:05:10;27128.13;;;-147.39;49.49
3524;BME280;1776;53.330;11.498;2023-07-13T12:07:37;27079.28;;;-147.39;49.83
3524;BME280;1776;53.330;11.498;2023-07-13T12:10:27;27079.28;;;-147.39;49.69
3524;BME280;1776;53.330;11.498;2023-07-13T12:13:03;27174.91;;;-147.39;49.62
3524;BME280;1776;53.330;11.498;2023-07-13T12:15:40;27077.25;;;-147.39;48.08
3524;BME280;1776;53.330;11.498;2023-07-13T12:18:14;27058.94;;;-147.39;47.56
3524;BME280;1776;53.330;11.498;2023-07-13T12:20:40;26940.91;;;-147.39;45.50
3524;BME280;1776;53.330;11.498;2023-07-13T12:23:25;27183.06;;;-147.39;45.79
3524;BME280;1776;53.330;11.498;2023-07-13T12:25:51;27272.59;;;-147.39;44.68
3524;BME280;1776;53.330;11.498;2023-07-13T12:31:05;27333.66;;;-147.39;43.63
3524;BME280;1776;53.330;11.498;2023-07-13T12:33:33;27309.22;;;-147.39;43.62
3524;BME280;1776;53.330;11.498;2023-07-13T12:36:03;27470.00;;;-147.39;43.53
3524;BME280;1776;53.330;11.498;2023-07-13T12:38:31;27506.63;;;-147.39;42.54
3524;BME280;1776;53.330;11.498;2023-07-13T12:40:57;27506.63;;;-147.39;41.98
3524;BME280;1776;53.330;11.498;2023-07-13T12:43:24;27480.16;;;-147.39;40.66
3524;BME280;1776;53.330;11.498;2023-07-13T12:46:00;27463.88;;;-147.39;42.06
3524;BME280;1776;53.330;11.498;2023-07-13T12:48:26;27553.44;;;-147.39;41.51
3524;BME280;1776;53.330;11.498;2023-07-13T12:50:54;27543.25;;;-147.39;40.16
3524;BME280;1776;53.330;11.498;2023-07-13T12:53:28;27651.09;;;-147.39;40.40
3524;BME280;1776;53.330;11.498;2023-07-13T12:56:02;27588.03;;;-147.39;40.48
3524;BME280;1776;53.330;11.498;2023-07-13T12:58:31;27704.03;;;-147.39;40.86
3524;BME280;1776;53.330;11.498;2023-07-13T13:00:58;27610.41;;;-147.39;39.16
3524;BME280;1776;53.330;11.498;2023-07-13T13:03:32;27618.53;;;-147.39;39.18
3524;BME280;1776;53.330;11.498;2023-07-13T13:06:05;27740.66;;;-147.39;39.59
3524;BME280;1776;53.330;11.498;2023-07-13T13:08:32;27569.72;;;-147.39;40.19
3524;BME280;1776;53.330;11.498;2023-07-13T13:10:58;27590.06;;;-147.39;40.60
3524;BME280;1776;53.330;11.498;2023-07-13T13:13:23;27728.44;;;-147.39;39.17
3524;BME280;1776;53.330;11.498;2023-07-13T13:15:49;27712.16;;;-147.39;39.18
3524;BME280;1776;53.330;11.498;2023-07-13T13:18:20;27657.22;;;-147.39;39.55
3524;BME280;1776;53.330;11.498;2023-07-13T13:20:47;27624.66;;;-147.39;39.31